createdAt,value
2023-04-02T00:02:23.008Z,94590.50
2023-04-02T00:07:31.788Z,94609.78
2023-04-02T00:12:34.438Z,94620.19
2023-04-02T00:17:36.527Z,94642.97
2023-04-02T00:22:44.499Z,94626.44
2023-04-02T00:27:46.655Z,94630.41
2023-04-02T00:32:51.952Z,94640.44
2023-04-02T00:37:56.322Z,94645.31
2023-04-02T00:43:04.685Z,94627.72
2023-04-02T00:48:28.706Z,94633.19
2023-04-02T00:53:31.962Z,94628.34
2023-04-02T00:58:37.528Z,94633.34
2023-04-02T01:03:41.329Z,94629.84
2023-04-02T01:08:56.009Z,94647.56
2023-04-02T01:14:25.500Z,94636.56
2023-04-02T01:19:34.063Z,94639.84
2023-04-02T01:24:38.970Z,94645.31
2023-04-02T01:29:46.402Z,94644.50
2023-04-02T01:34:50.210Z,94634.50
2023-04-02T01:40:18.059Z,94640.59
2023-04-02T01:45:22.730Z,94647.91
2023-04-02T01:50:37.463Z,94663.28
2023-04-02T01:55:45.177Z,94632.75
2023-04-02T02:01:14.403Z,94680.09
2023-04-02T02:06:19.171Z,94668.09
2023-04-02T02:11:24.494Z,94664.72
2023-04-02T02:16:28.484Z,94662.59
2023-04-02T02:21:43.971Z,94698.34
2023-04-02T02:26:48.758Z,94677.91
2023-04-02T02:31:54.101Z,94679.50
2023-04-02T02:37:09.344Z,94680.28
2023-04-02T02:42:12.357Z,94666.41
2023-04-02T02:47:16.278Z,94683.84
2023-04-02T02:52:32.036Z,94700.19
2023-04-02T02:58:01.212Z,94683.59
2023-04-02T03:03:18.378Z,94715.38
2023-04-02T03:08:42.298Z,94729.84
2023-04-02T03:13:50.004Z,94722.28
2023-04-02T03:18:59.472Z,94707.41
2023-04-02T03:24:09.019Z,94719.09
2023-04-02T03:29:18.215Z,94733.47
2023-04-02T03:34:20.261Z,94743.13
2023-04-02T03:39:33.804Z,94752.75
2023-04-02T03:44:39.845Z,94747.91
2023-04-02T03:49:50.262Z,94746.34
2023-04-02T03:54:59.630Z,94749.56
2023-04-02T04:00:27.707Z,94760.19
2023-04-02T04:05:37.158Z,94745.38
2023-04-02T04:10:41.035Z,94753.06
2023-04-02T04:15:46.233Z,94740.38
2023-04-02T04:20:56.794Z,94740.25
2023-04-02T04:26:10.049Z,94742.09
2023-04-02T04:31:25.976Z,94746.94
2023-04-02T04:36:41.690Z,94747.72
2023-04-02T04:41:48.324Z,94757.25
2023-04-02T04:46:54.165Z,94762.94
2023-04-02T04:52:18.155Z,94768.56
2023-04-02T04:57:38.690Z,94760.03
2023-04-02T05:03:03.564Z,94784.22
2023-04-02T05:08:12.499Z,94799.13
2023-04-02T05:13:28.140Z,94802.63
2023-04-02T05:18:48.256Z,94808.53
2023-04-02T05:24:19.448Z,94802.50
2023-04-02T05:29:26.038Z,94820.25
2023-04-02T05:34:32.995Z,94810.16
2023-04-02T05:39:35.838Z,94818.19
2023-04-02T05:44:41.905Z,94831.84
2023-04-02T05:50:10.285Z,94836.94
2023-04-02T05:55:46.516Z,94837.72
2023-04-02T06:01:03.027Z,94843.16
2023-04-02T06:06:16.163Z,94847.25
2023-04-02T06:11:26.444Z,94839.75
2023-04-02T06:16:31.080Z,94847.22
2023-04-02T06:21:33.773Z,94853.69
2023-04-02T06:26:41.137Z,94856.34
2023-04-02T06:32:12.867Z,94861.63
2023-04-02T06:37:32.704Z,94877.78
2023-04-02T06:42:56.752Z,94871.53
2023-04-02T06:48:30.244Z,94873.59
2023-04-02T06:53:49.827Z,94875.88
2023-04-02T06:58:53.983Z,94891.38
2023-04-02T07:03:57.880Z,94899.19
2023-04-02T07:09:09.265Z,94898.44
2023-04-02T07:14:15.288Z,94886.81
2023-04-02T07:19:20.262Z,94887.47
2023-04-02T07:24:27.530Z,94899.59
2023-04-02T07:29:29.568Z,94899.84
2023-04-02T07:34:31.562Z,94902.38
2023-04-02T07:39:36.556Z,94917.00
2023-04-02T07:44:40.553Z,94900.53
2023-04-02T07:49:42.858Z,94917.63
2023-04-02T07:54:45.062Z,94911.50
2023-04-02T07:59:47.659Z,94908.75
2023-04-02T08:04:51.658Z,94916.63
2023-04-02T08:09:53.919Z,94916.88
2023-04-02T08:14:56.634Z,94917.69
2023-04-02T08:20:02.891Z,94919.59
2023-04-02T08:25:05.537Z,94917.53
2023-04-02T08:30:10.674Z,94915.19
2023-04-02T08:35:16.459Z,94905.28
2023-04-02T08:40:30.386Z,94906.00
2023-04-02T08:46:09.060Z,94900.84
2023-04-02T08:51:24.039Z,94887.28
2023-04-02T08:56:50.296Z,94888.38
2023-04-02T09:02:04.178Z,94900.72
2023-04-02T09:07:09.622Z,94900.94
2023-04-02T09:12:25.267Z,94902.69
2023-04-02T09:17:29.994Z,94895.66
2023-04-02T09:22:35.834Z,94895.66
2023-04-02T09:27:38.376Z,94891.03
2023-04-02T09:32:53.747Z,94888.44
2023-04-02T09:38:33.197Z,94891.94
2023-04-02T09:43:39.450Z,94881.44
2023-04-02T09:48:51.400Z,94881.00
2023-04-02T09:54:12.510Z,94869.88
2023-04-02T09:59:23.135Z,94860.19
2023-04-02T10:04:44.823Z,94860.03
2023-04-02T10:09:58.754Z,94863.44
2023-04-02T10:15:01.751Z,94851.25
2023-04-02T10:20:17.394Z,94855.72
2023-04-02T10:25:22.264Z,94852.94
2023-04-02T10:30:42.359Z,94840.22
2023-04-02T10:36:08.486Z,94842.03
2023-04-02T10:41:17.285Z,94836.25
2023-04-02T10:46:25.304Z,94835.19
2023-04-02T10:51:52.356Z,94843.66
2023-04-02T10:56:55.328Z,94812.06
2023-04-02T11:02:02.542Z,94794.84
2023-04-02T11:07:14.645Z,94805.66
2023-04-02T11:12:28.101Z,94797.47
2023-04-02T11:17:35.440Z,94798.00
2023-04-02T11:22:39.072Z,94807.31
2023-04-02T11:27:42.978Z,94796.44
2023-04-02T11:32:50.469Z,94787.88
2023-04-02T11:37:56.617Z,94779.53
2023-04-02T11:43:34.709Z,94785.00
2023-04-02T11:48:37.380Z,94785.25
2023-04-02T11:53:46.328Z,94774.63
2023-04-02T11:59:06.909Z,94776.19
2023-04-02T12:04:18.087Z,94759.75
2023-04-02T12:09:25.577Z,94763.69
2023-04-02T12:14:48.026Z,94759.94
2023-04-02T12:19:54.363Z,94752.75
2023-04-02T12:25:01.293Z,94763.88
2023-04-02T12:30:17.717Z,94754.28
2023-04-02T12:35:36.815Z,94737.41
2023-04-02T12:40:58.402Z,94757.69
2023-04-02T12:46:03.677Z,94746.59
2023-04-02T12:51:06.263Z,94746.59
2023-04-02T12:56:21.855Z,94740.53
2023-04-02T13:01:28.426Z,94730.84
2023-04-02T13:06:32.264Z,94731.25
2023-04-02T13:11:40.656Z,94725.69
2023-04-02T13:16:43.331Z,94740.22
2023-04-02T13:21:46.246Z,94722.31
2023-04-02T13:26:49.916Z,94720.88
2023-04-02T13:31:54.215Z,94710.59
2023-04-02T13:36:57.932Z,94708.03
2023-04-02T13:42:02.818Z,94701.06
2023-04-02T13:47:05.219Z,94698.00
2023-04-02T13:52:07.860Z,94686.50
2023-04-02T13:57:09.937Z,94679.47
2023-04-02T14:02:23.136Z,94668.13
2023-04-02T14:07:39.757Z,94675.69
2023-04-02T14:12:57.536Z,94670.47
2023-04-02T14:18:02.124Z,94664.25
2023-04-02T14:23:13.781Z,94660.28
2023-04-02T14:28:59.235Z,94642.69
2023-04-02T14:34:07.919Z,94628.53
2023-04-02T14:39:15.544Z,94632.22
2023-04-02T14:44:19.584Z,94635.19
2023-04-02T14:49:29.092Z,94626.63
2023-04-02T14:54:40.296Z,94635.72
2023-04-02T14:59:53.787Z,94625.72
2023-04-02T15:05:06.925Z,94613.72
2023-04-02T15:10:23.382Z,94631.25
2023-04-02T15:15:51.997Z,94641.91
2023-04-02T15:20:54.256Z,94637.09
2023-04-02T15:26:02.899Z,94617.22
2023-04-02T15:31:10.378Z,94610.31
2023-04-02T15:36:33.496Z,94625.34
2023-04-02T15:41:42.812Z,94615.78
2023-04-02T15:47:16.655Z,94610.44
2023-04-02T15:53:00.000Z,94617.53
2023-04-02T15:58:36.262Z,94613.66
2023-04-02T16:03:59.337Z,94612.16
2023-04-02T16:09:10.371Z,94616.50
2023-04-02T16:14:28.483Z,94601.03
2023-04-02T16:19:47.094Z,94609.06
2023-04-02T16:24:56.743Z,94612.69
2023-04-02T16:30:17.884Z,94613.59
2023-04-02T16:35:43.944Z,94596.56
2023-04-02T17:55:50.775Z,94648.78
2023-04-02T18:01:45.792Z,94653.38
2023-04-02T18:07:10.913Z,94658.06
2023-04-02T18:12:26.408Z,94647.25
2023-04-02T18:18:16.501Z,94660.38
2023-04-02T18:23:34.339Z,94662.41
2023-04-02T18:29:01.293Z,94658.66
2023-04-02T18:34:29.589Z,94666.94
2023-04-02T18:40:08.229Z,94680.34
2023-04-02T18:45:48.771Z,94678.81
2023-04-02T18:50:52.068Z,94681.19
2023-04-02T18:56:02.984Z,94683.34
2023-04-02T19:01:13.471Z,94689.03
2023-04-02T19:06:25.596Z,94701.72
2023-04-02T19:11:35.025Z,94707.31
2023-04-02T19:16:56.593Z,94714.09
2023-04-02T19:22:30.777Z,94714.00
2023-04-02T19:27:53.470Z,94720.78
2023-04-02T19:33:24.035Z,94717.44
2023-04-02T19:38:48.688Z,94724.22
2023-04-02T19:43:51.025Z,94710.88
2023-04-02T19:48:53.027Z,94723.47
2023-04-02T19:53:55.092Z,94732.25
2023-04-02T19:58:58.290Z,94736.47
2023-04-02T20:04:03.953Z,94738.41
2023-04-02T20:09:07.646Z,94757.25
2023-04-02T20:14:09.728Z,94747.06
2023-04-02T20:19:12.090Z,94752.22
2023-04-02T20:24:14.647Z,94764.09
2023-04-02T20:29:17.249Z,94770.81
2023-04-02T20:34:19.313Z,94773.75
2023-04-02T20:39:21.777Z,94766.22
2023-04-02T20:44:23.862Z,94765.63
2023-04-02T20:49:26.805Z,94762.75
2023-04-02T20:54:30.224Z,94771.44
2023-04-02T20:59:32.293Z,94765.97
2023-04-02T21:04:36.506Z,94763.81
2023-04-02T21:09:39.306Z,94767.56
2023-04-02T21:14:41.514Z,94769.03
2023-04-02T21:19:43.815Z,94767.19
2023-04-02T21:24:46.043Z,94774.91
2023-04-02T21:29:48.223Z,94776.97
2023-04-02T21:34:50.745Z,94775.28
2023-04-02T21:39:53.313Z,94776.06
2023-04-02T21:44:56.110Z,94779.81
2023-04-02T21:49:58.209Z,94767.25
2023-04-02T21:55:00.077Z,94779.22
2023-04-02T22:00:02.112Z,94768.19
2023-04-02T22:05:07.112Z,94777.94
2023-04-02T22:10:09.238Z,94770.56
2023-04-02T22:15:12.142Z,94779.06
2023-04-02T22:20:14.194Z,94765.38
2023-04-02T22:25:16.485Z,94760.50
2023-04-02T22:30:18.538Z,94761.13
2023-04-02T22:35:20.608Z,94765.66
2023-04-02T22:40:23.170Z,94758.47
2023-04-02T22:45:25.479Z,94753.13
2023-04-02T22:50:27.850Z,94749.81
2023-04-02T22:55:30.691Z,94749.34
2023-04-02T23:00:32.724Z,94751.84
2023-04-02T23:05:37.570Z,94738.44
2023-04-02T23:10:39.758Z,94732.78
2023-04-02T23:15:44.729Z,94739.41
2023-04-02T23:20:50.196Z,94731.69
2023-04-02T23:26:03.640Z,94724.78
2023-04-02T23:31:07.782Z,94726.53
2023-04-02T23:36:12.882Z,94723.69
2023-04-02T23:41:16.097Z,94718.03
2023-04-02T23:46:18.679Z,94714.22
2023-04-02T23:51:21.426Z,94714.69
2023-04-02T23:56:23.751Z,94712.63
